Home > Products > Valid Products > MTR

000
SAUS44 KMAF 020158
MTRGDP
METAR KGDP 020151Z AUTO 25019KT 10SM CLR 20/01 A2999 RMK AO2 SLP092
T02000006





000
SAUS44 KMAF 020154
MTR6R6
METAR K6R6 020153Z AUTO 09006KT 28/18 A2979 RMK AO1 SLP049 T02830183





000
SAUS44 KMAF 020059
MTRGDP
METAR KGDP 020051Z AUTO 24017G23KT 10SM CLR 21/01 A2999 RMK AO2 PK
WND 25028/2355 SLP091 T02060011





000
SAUS44 KMAF 020054
MTR6R6
METAR K6R6 020053Z AUTO 13011G18KT 30/18 A2977 RMK AO1 SLP044
T03000183





000
SAUS44 KMAF 020000 COR
MTRGDP
METAR KGDP 012351Z AUTO 24021G30KT 10SM CLR 23/01 A2997 RMK AO2 PK
WND 24033/2310 SLP079 T02280006 10256 20228 53003





000
SAUS44 KMAF 012359 COR
MTRGDP
METAR KGDP 012351Z AUTO 24021G30KT 10SM CLR 23/01 A2997 RMK AO2 PK
WND 24033/2310 SLP079 T02280006 10256 20228 53003





000
SAUS44 KMAF 012358
MTRGDP
METAR KGDP 012351Z AUTO 24021G30KT 10SM CLR 23/01 A2997 RMK AO2 PK
WND 24033/2310 SLP079 T02280006 10256 20228 53003





000
SAUS44 KMAF 012354
MTR6R6
METAR K6R6 012353Z AUTO 12012KT 32/18 A2975 RMK AO1 SLP035 T03220183
10356 20306 52002





000
SAUS44 KMAF 012258
MTRGDP
METAR KGDP 012251Z AUTO 25023G30KT 10SM CLR 24/02 A2996 RMK AO2 PK
WND 25034/2157 SLP074 T02440017





000
SAUS44 KMAF 012254
MTR6R6
METAR K6R6 012253Z AUTO 11016KT 34/18 A2974 RMK AO1 SLP032 T03390183





000
SAUS44 KMAF 012158
MTRGDP
METAR KGDP 012151Z AUTO 25024G33KT 10SM CLR 25/02 A2996 RMK AO2 PK
WND 25037/2135 SLP069 T02500022





000
SAUS44 KMAF 012154
MTR6R6
METAR K6R6 012153Z AUTO 14007KT 35/17 A2975 RMK AO1 SLP033 T03500167





000
SAUS44 KMAF 012058
MTRGDP
METAR KGDP 012051Z AUTO 25023G33KT 10SM CLR 25/02 A2996 RMK AO2 PK
WND 25035/2016 SLP068 T02500022 56017





000
SAUS44 KMAF 012054
MTR6R6
METAR K6R6 012053Z AUTO 17009KT 35/16 A2974 RMK AO1 SLP031 T03500161
56028





000
SAUS44 KMAF 011958
MTRGDP
METAR KGDP 011951Z AUTO 25027G37KT 10SM CLR 24/02 A2996 RMK AO2 PK
WND 25040/1859 SLP068 T02440022





000
SAUS44 KMAF 011954
MTR6R6
METAR K6R6 011953Z AUTO 16006KT 34/16 A2977 RMK AO1 SLP041 T03390161





000
SAUS44 KMAF 011858
MTRGDP
METAR KGDP 011851Z AUTO 24030G39KT 10SM CLR 24/03 A2998 RMK AO2 PK
WND 25039/1851 SLP078 T02440028





000
SAUS44 KMAF 011854
MTR6R6
METAR K6R6 011853Z AUTO VRB04KT 33/17 A2980 RMK AO1 SLP052 T03280172





000
SAUS44 KMAF 011758
MTRGDP
METAR KGDP 011751Z AUTO 25030G36KT 10SM CLR 23/06 A3002 RMK AO2 PK
WND 25036/1750 SLP089 T02280056 10228 20133 58005





000
SAUS44 KMAF 011754
MTR6R6
METAR K6R6 011753Z AUTO 00000KT 31/18 A2983 RMK AO1 SLP064 T03110183
10311 20206 58005





000
SAUS44 KMAF 011658
MTRGDP
METAR KGDP 011651Z AUTO 24025G29KT 10SM CLR 21/06 A3003 RMK AO2 PK
WND 24029/1646 SLP097 T02110056





000
SAUS44 KMAF 011654
MTR6R6
METAR K6R6 011653Z AUTO 09004KT 29/19 A2985 RMK AO1 SLP070 T02890189





000
SAUS44 KMAF 011558
MTRGDP
METAR KGDP 011551Z AUTO 23017KT 10SM CLR 18/06 A3004 RMK AO2 SLP101
T01830061





000
SAUS44 KMAF 011554
MTR6R6
METAR K6R6 011553Z AUTO 06005KT 27/19 A2986 RMK AO1 SLP073 T02670194





000
SAUS44 KMAF 011458
MTRGDP
METAR KGDP 011451Z AUTO 20009KT 10SM CLR 16/06 A3003 RMK AO2 SLP106
T01560056 51019





000
SAUS44 KMAF 011454
MTR6R6
METAR K6R6 011453Z AUTO 05005KT 24/19 A2985 RMK AO1 SLP072 T02440194
51015





000
SAUS44 KMAF 011358
MTRGDP
METAR KGDP 011351Z AUTO 20010KT 10SM CLR 15/04 A3001 RMK AO2 SLP096
T01500039





000
SAUS44 KMAF 011354
MTR6R6
METAR K6R6 011353Z AUTO 02005KT 23/19 A2984 RMK AO1 SLP068 T02330194





000
SAUS44 KMAF 011258
MTRGDP
METAR KGDP 011251Z AUTO 23011KT 10SM CLR 14/03 A3000 RMK AO2 SLP093
T01390033





000
SAUS44 KMAF 011254
MTR6R6
METAR K6R6 011253Z AUTO 35005KT 21/18 A2982 RMK AO1 SLP063 T02060183





000
SAUS44 KMAF 011158
MTRGDP
METAR KGDP 011151Z AUTO 23016KT 10SM CLR 14/04 A2997 RMK AO2 SLP079
T01390039 10183 20139 53003 $





000
SAUS44 KMAF 011154
MTR6R6
METAR K6R6 011153Z AUTO 01005KT 21/19 A2980 RMK AO1 SLP054 T02110189
10233 20211 53004





000
SAUS44 KMAF 011058
MTRGDP
METAR KGDP 011051Z AUTO 22014KT 10SM CLR 14/04 A2995 RMK AO2 SLP068
T01440044 $





000
SAUS44 KMAF 011054
MTR6R6
METAR K6R6 011053Z AUTO 35006KT 21/18 A2979 RMK AO1 SLP051 T02110183





000
SAUS44 KMAF 010958
MTRGDP
METAR KGDP 010951Z AUTO 23013G18KT 10SM CLR 16/06 A2995 RMK AO2
SLP066 T01560061 $





000
SAUS44 KMAF 010954
MTR6R6
METAR K6R6 010953Z AUTO 36006KT 21/19 A2979 RMK AO1 SLP049 T02110189





000
SAUS44 KMAF 010858
MTRGDP
METAR KGDP 010851Z AUTO 24014KT 10SM CLR 16/08 A2996 RMK AO2 SLP067
T01610078 58008 $





000
SAUS44 KMAF 010854
MTR6R6
METAR K6R6 010853Z AUTO 01005KT 22/18 A2979 RMK AO1 SLP049 T02170183
58002





000
SAUS44 KMAF 010758
MTRGDP
METAR KGDP 010751Z AUTO 22014KT 10SM CLR 17/07 A2997 RMK AO2 SLP070
T01720072 $





000
SAUS44 KMAF 010754
MTR6R6
METAR K6R6 010753Z AUTO 02007KT 22/19 A2979 RMK AO1 SLP051 T02170189





000
SAUS44 KMAF 010658
MTRGDP
METAR KGDP 010651Z AUTO 24012KT 10SM CLR 17/08 A2998 RMK AO2 SLP075
T01670078 402610161 $





000
SAUS44 KMAF 010655
MTR6R6
METAR K6R6 010653Z AUTO 36005KT 22/19 A2979 RMK AO1 SLP051 T02220189





000
SAUS44 KMAF 010558
MTRGDP
METAR KGDP 010551Z AUTO 24009KT 10SM CLR 18/07 A2999 RMK AO2 SLP077
T01830072 10233 20183 50002 $





000
SAUS44 KMAF 010554
MTR6R6
METAR K6R6 010553Z AUTO 05004KT 23/19 A2979 RMK AO1 SLP051 T02330189
10311 20233 403330183 58001





000
SAUS44 KMAF 010458
MTRGDP
METAR KGDP 010451Z AUTO 23007KT 10SM CLR 19/08 A2999 RMK AO2 SLP081
T01890078





000
SAUS44 KMAF 010454
MTR6R6
METAR K6R6 010453Z AUTO 09004KT 24/19 A2980 RMK AO1 SLP054 T02440189





000
SAUS44 KMAF 010358
MTRGDP
METAR KGDP 010351Z AUTO 25008KT 10SM CLR 20/08 A2999 RMK AO2 SLP081
T02000078





000
SAUS44 KMAF 010354
MTR6R6
METAR K6R6 010353Z AUTO 09008KT 26/18 A2980 RMK AO1 SLP055 T02560183





000
SAUS44 KMAF 010258
MTRGDP
METAR KGDP 010251Z AUTO 26011KT 10SM CLR 20/07 A2998 RMK AO2 SLP082
T02000067 51007





000
SAUS44 KMAF 010254
MTR6R6
METAR K6R6 010253Z AUTO 10006KT 26/18 A2980 RMK AO1 SLP056 T02610178
53008





000
SAUS44 KMAF 010158
MTRGDP
METAR KGDP 010151Z AUTO 26015KT 10SM FEW070 21/07 A2997 RMK AO2
SLP080 T02110067





000
SAUS44 KMAF 010154
MTR6R6
METAR K6R6 010153Z AUTO 13010KT 28/18 A2978 RMK AO1 SLP048 T02780178





000
SAUS44 KMAF 010058
MTRGDP
METAR KGDP 010051Z AUTO 25018KT 10SM CLR 22/07 A2996 RMK AO2 PK WND
24029/0004 SLP077 T02170072





000
SAUS44 KMAF 010054
MTR6R6
METAR K6R6 010053Z AUTO 11007KT 29/18 A2978 RMK AO1 SLP052 T02890178





000
SAUS44 KMAF 302358
MTRGDP
METAR KGDP 302351Z AUTO 24020G30KT 10SM CLR 23/08 A2995 RMK AO2 PK
WND 26035/2303 SLP069 T02330078 10261 20233 55001





000
SAUS44 KMAF 302354
MTR6R6
METAR K6R6 302353Z AUTO 12012KT 31/17 A2977 RMK AO1 SLP046 T03110172
10333 20294 55006





000
SAUS44 KMAF 302258
MTRGDP
METAR KGDP 302251Z AUTO 25027G34KT 10SM CLR 25/07 A2994 RMK AO2 PK
WND 26039/2220 SLP062 T02500072





000
SAUS44 KMAF 302254
MTR6R6
METAR K6R6 302253Z AUTO 13008KT 33/16 A2976 RMK AO1 SLP038 T03330156





000
SAUS44 KMAF 302158
MTRGDP
METAR KGDP 302151Z AUTO 24020G36KT 10SM CLR 25/08 A2995 RMK AO2 PK
WND 25039/2104 SLP064 T02500078





000
SAUS44 KMAF 302154
MTR6R6
METAR K6R6 302153Z AUTO 18007KT 33/15 A2977 RMK AO1 SLP044 T03280150





000
SAUS44 KMAF 302058
MTRGDP
METAR KGDP 302051Z AUTO 24029G37KT 10SM CLR 26/09 A2996 RMK AO2 PK
WND 25039/2033 SLP064 T02560089 56023





000
SAUS44 KMAF 302054
MTR6R6
METAR K6R6 302053Z AUTO VRB03KT 32/16 A2979 RMK AO1 SLP050 T03220156
56028





000
SAUS44 KMAF 301958
MTRGDP
METAR KGDP 301951Z AUTO 25029G36KT 10SM SCT055 26/11 A2998 RMK AO2
PK WND 24037/1919 SLP072 T02560111





000
SAUS44 KMAF 301954
MTR6R6
METAR K6R6 301953Z AUTO 17006KT 32/15 A2982 RMK AO1 SLP059 T03220150





000
SAUS44 KMAF 301858
MTRGDP
METAR KGDP 301851Z AUTO 25025G32KT 10SM CLR 25/13 A3001 RMK AO2 PK
WND 23034/1823 SLP083 T02500133





000
SAUS44 KMAF 301854
MTR6R6
METAR K6R6 301853Z AUTO 16007KT 110V190 31/16 A2985 RMK AO1 SLP071
T03110156





000
SAUS44 KMAF 301800 COR
MTRGDP
METAR KGDP 301751Z AUTO 23019G28KT 10SM CLR 24/13 A3004 RMK AO2 PK
WND 24028/1744 SLP092 T02390133 10239 20161 58009





000
SAUS44 KMAF 301759 COR
MTRGDP
METAR KGDP 301751Z AUTO 23019G28KT 10SM CLR 24/13 A3004 RMK AO2 PK
WND 24028/1744 SLP092 T02390133 10239 20161 58009





000
SAUS44 KMAF 301758
MTRGDP
METAR KGDP 301751Z AUTO 23019G28KT 10SM CLR 24/13 A3004 RMK AO2 PK
WND 24028/1744 SLP092 T02390133 10239 20161 58009





000
SAUS44 KMAF 301754
MTR6R6
METAR K6R6 301753Z AUTO 15008KT 100V180 29/16 A2988 RMK AO1 SLP081
T02940161 10300 20189 58008





000
SAUS44 KMAF 301658
MTRGDP
METAR KGDP 301651Z AUTO 24014G23KT 10SM SCT035 21/12 A3007 RMK AO2
SLP108 T02110117





000
SAUS44 KMAF 301654
MTR6R6
METAR K6R6 301653Z AUTO 12003KT 28/17 A2989 RMK AO1 SLP088 T02780172





000
SAUS44 KMAF 301558
MTRGDP
METAR KGDP 301551Z AUTO 24013KT 10SM CLR 20/14 A3007 RMK AO2 SLP113
T02000144





000
SAUS44 KMAF 301554
MTR6R6
METAR K6R6 301553Z AUTO 00000KT 26/18 A2991 RMK AO1 SLP094 T02560178





000
SAUS44 KMAF 301458
MTRGDP
METAR KGDP 301451Z AUTO 22007KT 10SM CLR 17/14 A3007 RMK AO2 SLP116
T01720139 53007





000
SAUS44 KMAF 301454
MTR6R6
METAR K6R6 301453Z AUTO 00000KT 23/18 A2990 RMK AO1 SLP094 T02280183
53005





000
SAUS44 KMAF 301358
MTRGDP
METAR KGDP 301351Z AUTO 23009KT 10SM CLR 17/13 A3006 RMK AO2 SLP115
T01670128





000
SAUS44 KMAF 301354
MTR6R6
METAR K6R6 301353Z AUTO VRB03KT 22/18 A2990 RMK AO1 SLP093 T02170183





000
SAUS44 KMAF 301258
MTRGDP
METAR KGDP 301251Z AUTO 25010KT 9SM CLR 16/12 A3005 RMK AO2 SLP109
T01610122





000
SAUS44 KMAF 301254
MTR6R6
METAR K6R6 301253Z AUTO 36005KT 19/17 A2989 RMK AO1 SLP089 T01890167





000
SAUS44 KMAF 301158
MTRGDP
METAR KGDP 301151Z AUTO 25009KT 10SM FEW055 17/12 A3004 RMK AO2
SLP103 T01670122 10194 20161 53000





000
SAUS44 KMAF 301154
MTR6R6
METAR K6R6 301153Z AUTO 36005KT 19/17 A2989 RMK AO1 SLP088 T01890172
10211 20183 56003





000
SAUS44 KMAF 301058
MTRGDP
METAR KGDP 301051Z AUTO 26008KT 10SM CLR 16/13 A3004 RMK AO2 SLP100
T01610128





000
SAUS44 KMAF 301054
MTR6R6
METAR K6R6 301053Z AUTO 36005KT 19/17 A2989 RMK AO1 SLP087 T01940172





000
SAUS44 KMAF 300958
MTRGDP
METAR KGDP 300951Z AUTO 25009KT 10SM CLR 17/13 A3003 RMK AO2 SLP098
T01720128





000
SAUS44 KMAF 300954
MTR6R6
METAR K6R6 300953Z AUTO 32004KT 18/17 A2989 RMK AO1 SLP088 T01830167





000
SAUS44 KMAF 300858
MTRGDP
METAR KGDP 300851Z AUTO 25009KT 10SM SCT060 18/13 A3004 RMK AO2
SLP097 T01780133 58005





000
SAUS44 KMAF 300854
MTR6R6
METAR K6R6 300853Z AUTO 02005KT 19/17 A2990 RMK AO1 SLP089 T01940172
58005





000
SAUS44 KMAF 300758
MTRGDP
METAR KGDP 300751Z AUTO 23008KT 10SM SCT060 18/13 A3005 RMK AO2
SLP101 T01780133





000
SAUS44 KMAF 300754
MTR6R6
METAR K6R6 300753Z AUTO 02005KT 20/17 A2991 RMK AO1 SLP094 T02000172





000
SAUS44 KMAF 300658
MTRGDP
METAR KGDP 300651Z AUTO 25009KT 10SM CLR 18/13 A3005 RMK AO2 SLP101
T01780133 402610144





000
SAUS44 KMAF 300654
MTR6R6
METAR K6R6 300653Z AUTO 02004KT 21/17 A2991 RMK AO1 SLP093 T02060172





000
SAUS44 KMAF 300558
MTRGDP
METAR KGDP 300551Z AUTO 17007KT 10SM FEW060 SCT080 BKN110 19/13
A3006 RMK AO2 RAB34E51 SLP100 P0000 60000 T01890128 10222 20183
58003





000
SAUS44 KMAF 300554
MTR6R6
METAR K6R6 300553Z AUTO 04006KT 21/17 A2991 RMK AO1 SLP094 T02110172
10283 20211 403060183 58008





000
SAUS44 KMAF 300458
MTRGDP
METAR KGDP 300451Z AUTO 05012KT 10SM CLR 18/12 A3007 RMK AO2 SLP108
T01830122





000
SAUS44 KMAF 300454
MTR6R6
METAR K6R6 300453Z AUTO 04005KT 22/17 A2993 RMK AO1 SLP100 T02170167





000
SAUS44 KMAF 300358
MTRGDP
METAR KGDP 300351Z AUTO 05016KT 10SM CLR 18/13 A3007 RMK AO2 SLP109
T01830128





000
SAUS44 KMAF 300355
MTR6R6
METAR K6R6 300353Z AUTO 05005KT 22/17 A2994 RMK AO1 SLP104 T02170167





000
SAUS44 KMAF 300258
MTRGDP
METAR KGDP 300251Z AUTO 06018KT 10SM FEW070 SCT110 19/12 A3007 RMK
AO2 SLP112 T01940122 53001





000
SAUS44 KMAF 300254
MTR6R6
METAR K6R6 300253Z AUTO 07003KT 23/16 A2994 RMK AO1 SLP106 T02280161
53004





000
SAUS44 KMAF 300158
MTRGDP
METAR KGDP 300151Z AUTO 05018KT 10SM CLR 19/14 A3005 RMK AO2 SLP110
T01890139





000
SAUS44 KMAF 300154
MTR6R6
METAR K6R6 300153Z AUTO 10005KT 23/16 A2992 RMK AO1 SLP101 T02330156





000
SAUS44 KMAF 300058
MTRGDP
METAR KGDP 300051Z AUTO 06015KT 9SM CLR 20/16 A3006 RMK AO2 SLP113
T02000156





000
SAUS44 KMAF 300054
MTR6R6
METAR K6R6 300053Z AUTO 11006KT 26/15 A2993 RMK AO1 SLP102 T02610150





000
SAUS44 KMAF 292358
MTRGDP
METAR KGDP 292351Z AUTO 08013KT 9SM FEW047 22/16 A3007 RMK AO2
SLP111 T02220156 10261 20222 55008





000
SAUS44 KMAF 292354
MTR6R6
METAR K6R6 292353Z AUTO 10013G16KT 28/15 A2993 RMK AO1 SLP101
T02830150 10306 20283 56008





000
SAUS44 KMAF 292258
MTRGDP
METAR KGDP 292251Z AUTO 07015KT 9SM FEW060 23/16 A3006 RMK AO2
SLP109 T02330156





000
SAUS44 KMAF 292254
MTR6R6
METAR K6R6 292253Z AUTO 11011KT 29/15 A2993 RMK AO1 SLP101 T02890150





000
SAUS44 KMAF 292158
MTRGDP
METAR KGDP 292151Z AUTO 09016KT 9SM FEW048 FEW060 SCT080 23/16 A3008
RMK AO2 SLP116 T02280156





000
SAUS44 KMAF 292154
MTR6R6
METAR K6R6 292153Z AUTO 09009G16KT 30/16 A2994 RMK AO1 SLP104
T03000156





000
SAUS44 KMAF 292058
MTRGDP
METAR KGDP 292051Z AUTO 08014KT 9SM FEW044 24/16 A3010 RMK AO2 WSHFT
2028 SLP121 T02390156 56016





000
SAUS44 KMAF 292055
MTRGDP
SPECI KGDP 292048Z AUTO 08013KT 10SM FEW043 23/16 A3010 RMK AO2
WSHFT 2028





000
SAUS44 KMAF 292054
MTR6R6
METAR K6R6 292053Z AUTO 13009G14KT 30/15 A2995 RMK AO1 SLP107
T03000150 56026





000
SAUS44 KMAF 291958
MTRGDP
METAR KGDP 291951Z AUTO 00000KT 10SM FEW043 BKN080 24/14 A3012 RMK
AO2 SLP129 T02440144





000
SAUS44 KMAF 291954
MTR6R6
METAR K6R6 291953Z AUTO 14008KT 29/16 A2997 RMK AO1 SLP114 T02940156





000
SAUS44 KMAF 291858
MTRGDP
METAR KGDP 291851Z AUTO 22007KT 10SM FEW037 SCT080 24/14 A3015 RMK
AO2 SLP139 T02440144





000
SAUS44 KMAF 291854
MTR6R6
METAR K6R6 291853Z AUTO 11005KT 29/16 A3001 RMK AO1 SLP126 T02890156





000
SAUS44 KMAF 291758
MTRGDP
METAR KGDP 291751Z AUTO 19006KT 10SM CLR 24/14 A3017 RMK AO2 SLP148
T02390144 10244 20156 58003





000
SAUS44 KMAF 291754
MTR6R6
METAR K6R6 291753Z AUTO 14009KT 30/16 A3003 RMK AO1 SLP135 T03000156
58005





000
SAUS44 KMAF 291658
MTRGDP
METAR KGDP 291651Z AUTO 22007KT 9SM FEW070 23/16 A3018 RMK AO2
SLP152 T02280156





000
SAUS44 KMAF 291654
MTR6R6
METAR K6R6 291653Z AUTO 14010KT 28/16 A3005 RMK AO1 SLP140 T02830156





000
SAUS44 KMAF 291558
MTRGDP
METAR KGDP 291551Z AUTO 20004KT 10SM FEW075 22/14 A3019 RMK AO2
SLP154 T02170139





000
SAUS44 KMAF 291554
MTR6R6
METAR K6R6 291553Z AUTO 11005KT 26/17 A3006 RMK AO1 SLP146 T02560172





000
SAUS44 KMAF 291458
MTRGDP
METAR KGDP 291451Z AUTO VRB03KT 9SM SCT070 19/13 A3018 RMK AO2
SLP155 T01940133 51007





000
SAUS44 KMAF 291454
MTR6R6
METAR K6R6 291453Z AUTO 07004KT 23/17 A3005 RMK AO1 SLP145 T02330172
51011





000
SAUS44 KMAF 291358
MTRGDP
METAR KGDP 291351Z AUTO 05006KT 9SM SCT070 17/13 A3018 RMK AO2
SLP156 T01720128





000
SAUS44 KMAF 291354
MTR6R6
METAR K6R6 291353Z AUTO 03005KT 22/17 A3004 RMK AO1 SLP141 T02220172





000
SAUS44 KMAF 291258
MTRGDP
METAR KGDP 291251Z AUTO 06009KT 9SM BKN070 17/12 A3016 RMK AO2
SLP151 T01670122





000
SAUS44 KMAF 291254
MTR6R6
METAR K6R6 291253Z AUTO 01005KT 19/16 A3003 RMK AO1 SLP140 T01890161





000
SAUS44 KMAF 291158
MTRGDP
METAR KGDP 291151Z AUTO 05011KT 10SM CLR 16/12 A3016 RMK AO2 SLP149
T01610117 10161 20144 55000





000
SAUS44 KMAF 291154
MTR6R6
METAR K6R6 291153Z AUTO 36006KT 19/16 A3002 RMK AO1 SLP133 7////
T01940161 10206 20189 53002 $





000
SAUS44 KMAF 291058
MTRGDP
METAR KGDP 291051Z AUTO 05011KT 10SM CLR 16/11 A3016 RMK AO2 SLP146
T01560111





000
SAUS44 KMAF 291054
MTR6R6
METAR K6R6 291053Z AUTO 01007KT 19/16 A3001 RMK AO1 SLP131 T01940161
$





000
SAUS44 KMAF 290958
MTRGDP
METAR KGDP 290951Z AUTO 05014KT 10SM CLR 15/12 A3016 RMK AO2 SLP146
T01500117





000
SAUS44 KMAF 290954
MTR6R6
METAR K6R6 290953Z AUTO 01006KT 19/16 A3001 RMK AO1 SLP131 T01940161
$





000
SAUS44 KMAF 290858
MTRGDP
METAR KGDP 290851Z AUTO 05017KT 10SM CLR 15/12 A3016 RMK AO2 SLP146
T01500122 58002





000
SAUS44 KMAF 290854
MTR6R6
METAR K6R6 290853Z AUTO 36006KT 21/17 A3001 RMK AO1 SLP132 T02060167
58006 $





000
SAUS44 KMAF 290758
MTRGDP
METAR KGDP 290751Z AUTO 05019KT 10SM CLR 15/12 A3017 RMK AO2 SLP150
T01500122





000
SAUS44 KMAF 290754
MTR6R6
METAR K6R6 290753Z AUTO 01005KT 20/17 A3002 RMK AO1 SLP138 T02000167
$





000
SAUS44 KMAF 290658
MTRGDP
METAR KGDP 290651Z AUTO 06020KT 9SM CLR 15/13 A3017 RMK AO2 PK WND
06028/0607 SLP150 T01500128 402170133





000
SAUS44 KMAF 290654
MTR6R6
METAR K6R6 290653Z AUTO 03004KT 21/17 A3003 RMK AO1 SLP139 T02060167
$





000
SAUS44 KMAF 290558
MTRGDP
METAR KGDP 290551Z AUTO 06023KT 8SM CLR 15/13 A3017 RMK AO2 PK WND
06027/0524 SLP152 T01500133 10194 20150 58002





000
SAUS44 KMAF 290554
MTR6R6
METAR K6R6 290553Z AUTO 06004KT 21/17 A3003 RMK AO1 SLP141 6////
T02060167 10267 20206 402670194 $





000
SAUS44 KMAF 290458
MTRGDP
METAR KGDP 290451Z AUTO 07021KT 9SM CLR 16/13 A3017 RMK AO2 PK WND
08027/0439 SLP157 T01560133





000
SAUS44 KMAF 290455
MTR6R6
METAR K6R6 290453Z AUTO 06003KT 21/17 A3004 RMK AO1 SLP143 T02110172
PNO $





000
SAUS44 KMAF 290358
MTRGDP
METAR KGDP 290351Z AUTO 06019KT 10SM CLR 17/13 A3018 RMK AO2 PK WND
07027/0318 SLP159 T01670133





000
SAUS44 KMAF 290354
MTR6R6
METAR K6R6 290353Z AUTO 06004KT 21/17 A3004 RMK AO1 SLP146 T02110172





000
SAUS44 KMAF 290258
MTRGDP
METAR KGDP 290251Z AUTO 06022KT 10SM CLR 17/14 A3017 RMK AO2 PK WND
06026/0233 SLP157 T01670139 53004





000
SAUS44 KMAF 290254
MTR6R6
METAR K6R6 290253Z AUTO 04004KT 22/17 A3004 RMK AO1 SLP145 T02170172
53009





    US Dept of Commerce
    National Oceanic and Atmospheric Administration
    National Weather Service
    1325 East West Highway
    Silver Spring, MD 20910
    Page Author: NWS Internet Services Team
Disclaimer
Information Quality
Credits
Glossary
Privacy Policy
Freedom of Information Act (FOIA)
About Us
Career Opportunities